logo tempoitalia

Diretta Meteo Salina, Stati Uniti (USA)lunedì 31 agosto ore 00:53

Mappa
Sereno 31 °C Sereno 24 Ore: T.min 27 T.max 42
Ponente Sud Km/h 25.9 Punto di rugiada: 15 °C Umidità: 37% Visibilità: 10 Km
Il sole sorge alle: 06:58 Il sole tramonta alle: 20:02
31 Agosto 2026 00:53 tempo osservato: Sereno Sereno 31 37 1011 vento: Nord S 25.9
30 Agosto 2026 23:53 tempo osservato: Sereno Sereno 32 33 1010 vento: Nord S 14.8
30 Agosto 2026 22:53 tempo osservato: Sereno Sereno 33 33 1010 vento: Nord S 24
30 Agosto 2026 21:53 tempo osservato: Sereno Sereno 33 36 1009 vento: Nord S 20.3
30 Agosto 2026 20:53 tempo osservato: Sereno Sereno 35 30 1008 vento: Nord S 18.5
30 Agosto 2026 19:53 tempo osservato: Sereno Sereno 37 27 1008 vento: Nord S 22.2
30 Agosto 2026 18:53 tempo osservato: Sereno Sereno 39 26 1008 vento: Nord S 22.2
30 Agosto 2026 17:53 tempo osservato: Sereno Sereno 41 23 1007 vento: Nord S 33.3
30 Agosto 2026 16:53 tempo osservato: Sereno Sereno 42 22 1008 vento: Nord S/SO 33.3
30 Agosto 2026 15:53 tempo osservato: Sereno Sereno 41 23 1008 vento: Nord S/SO 37
30 Agosto 2026 14:53 tempo osservato: Sereno Sereno 41 23 1009 vento: Nord S/SO 33.3
30 Agosto 2026 13:53 tempo osservato: Sereno Sereno 40 24 1010 vento: Nord S/SO 29.6
30 Agosto 2026 12:53 tempo osservato: Sereno Sereno 38 27 1010 vento: Nord S/SO 29.6
30 Agosto 2026 11:53 tempo osservato: Sereno Sereno 37 28 1010 vento: Nord S/SO 35.2
30 Agosto 2026 10:53 tempo osservato: Sereno Sereno 34 34 1010 vento: Nord S/SO 33.3
30 Agosto 2026 09:53 tempo osservato: Sereno Sereno 31 40 1010 vento: Nord S 37
30 Agosto 2026 08:53 tempo osservato: Sereno Sereno 29 45 1011 vento: Nord S 35.2
30 Agosto 2026 07:53 tempo osservato: Sereno Sereno 27 47 1011 vento: Nord S 24
30 Agosto 2026 06:53 tempo osservato: Sereno Sereno 27 47 1011 vento: Nord S 20.3
30 Agosto 2026 05:53 tempo osservato: Sereno Sereno 28 45 1011 vento: Nord S 20.3
30 Agosto 2026 04:53 tempo osservato: Sereno Sereno 28 45 1011 vento: Nord S 20.3
30 Agosto 2026 03:53 tempo osservato: Sereno Sereno 28 45 1011 vento: Nord S 22.2
30 Agosto 2026 02:53 tempo osservato: Sereno Sereno 29 42 1011 vento: Nord S 25.9
30 Agosto 2026 01:53 tempo osservato: Sereno Sereno 30 40 1011 vento: Nord S 22.2